createdAt,value
2022-07-29T00:03:59.632Z,70.3
2022-07-29T00:08:59.581Z,70.9
2022-07-29T00:13:59.565Z,71.3
2022-07-29T00:33:59.552Z,72.1
2022-07-29T00:43:59.538Z,72.4
2022-07-29T01:03:59.517Z,73.6
2022-07-29T01:08:59.514Z,73.7
2022-07-29T01:13:59.499Z,74.8
2022-07-29T01:18:59.498Z,75.9
2022-07-29T01:23:59.486Z,76.2
2022-07-29T01:28:59.484Z,77.2
2022-07-29T01:33:59.486Z,78.1
2022-07-29T01:38:59.470Z,78.3
2022-07-29T01:43:59.466Z,78.7
2022-07-29T01:48:59.494Z,77.3
2022-07-29T01:53:59.444Z,78.4
2022-07-29T01:58:59.444Z,78.6
2022-07-29T02:03:59.418Z,78.7
2022-07-29T02:08:59.542Z,79.1
2022-07-29T02:13:59.425Z,79.1
2022-07-29T02:18:59.404Z,79.7
2022-07-29T02:23:59.415Z,80.8
2022-07-29T02:28:59.402Z,81.4
2022-07-29T02:33:59.396Z,81.1
2022-07-29T02:38:59.377Z,81.6
2022-07-29T02:43:59.390Z,81.2
2022-07-29T02:48:59.436Z,81.8
2022-07-29T02:53:59.357Z,82.8
2022-07-29T02:58:59.358Z,83.1
2022-07-29T03:03:59.350Z,82.8
2022-07-29T03:08:59.359Z,83.1
2022-07-29T03:13:59.344Z,83.4
2022-07-29T03:18:59.323Z,83
2022-07-29T03:23:59.329Z,82.5
2022-07-29T03:28:59.328Z,82.5
2022-07-29T03:33:59.320Z,82.8
2022-07-29T03:38:59.311Z,82.8
2022-07-29T03:43:59.305Z,82.5
2022-07-29T03:48:59.408Z,82.6
2022-07-29T03:53:59.305Z,83
2022-07-29T03:58:59.284Z,82.8
2022-07-29T04:03:59.349Z,82.6
2022-07-29T04:08:59.275Z,82.4
2022-07-29T04:13:59.257Z,82.2
2022-07-29T04:18:59.269Z,82.2
2022-07-29T04:23:59.269Z,83.2
2022-07-29T04:28:59.258Z,83.3
2022-07-29T04:33:59.256Z,83.5
2022-07-29T04:38:59.237Z,83.8
2022-07-29T04:43:59.225Z,82.9
2022-07-29T04:48:59.232Z,82.7
2022-07-29T04:58:59.214Z,82.1
2022-07-29T05:04:00.573Z,81.5
2022-07-29T05:08:59.187Z,81.4
2022-07-29T05:13:59.189Z,80.8
2022-07-29T05:23:59.171Z,78.2
2022-07-29T05:28:59.167Z,77.1
2022-07-29T05:43:59.146Z,74.2
2022-07-29T06:03:59.157Z,72.8
2022-07-29T06:18:59.106Z,73.4
2022-07-29T06:23:59.091Z,73.8
2022-07-29T06:28:59.095Z,73.8
2022-07-29T06:33:59.075Z,72.1
2022-07-29T06:38:59.076Z,70.4
2022-07-29T06:43:59.064Z,69.4
2022-07-29T06:48:59.133Z,69.6
2022-07-29T06:54:01.447Z,69.8
2022-07-29T06:58:59.058Z,70
2022-07-29T07:03:59.046Z,69.3
2022-07-29T07:08:59.021Z,66.5
2022-07-29T07:14:02.888Z,64
2022-07-29T07:18:59.017Z,62.2
2022-07-29T07:23:59.006Z,61.2
2022-07-29T07:28:59.022Z,59
2022-07-29T07:33:58.994Z,57.7
2022-07-29T07:38:58.998Z,58.1
2022-07-29T07:43:58.969Z,57.6
2022-07-29T07:48:59.045Z,55.7
2022-07-29T07:53:58.974Z,56.4
2022-07-29T07:58:58.970Z,56.6
2022-07-29T08:03:58.953Z,56.8
2022-07-29T08:09:13.579Z,56
2022-07-29T08:13:58.941Z,56
2022-07-29T08:18:58.937Z,55.7
2022-07-29T08:24:01.900Z,54.4
2022-07-29T08:28:58.932Z,54.1
2022-07-29T08:33:58.913Z,54.5
2022-07-29T08:38:58.903Z,54
2022-07-29T08:43:58.913Z,53.2
2022-07-29T08:48:58.933Z,53.1
2022-07-29T08:53:58.878Z,51.3
2022-07-29T08:58:58.895Z,50.8
2022-07-29T09:03:58.947Z,49.6
2022-07-29T09:08:58.872Z,50.8
2022-07-29T09:13:58.881Z,48.2
2022-07-29T09:18:58.848Z,47.2
2022-07-29T09:23:58.849Z,47.6
2022-07-29T09:28:58.844Z,47.9
2022-07-29T09:33:58.851Z,46.8
2022-07-29T09:38:58.830Z,47.6
2022-07-29T09:43:58.824Z,48
2022-07-29T09:48:58.877Z,49.2
2022-07-29T09:53:58.830Z,50.5
2022-07-29T09:58:58.819Z,48.6
2022-07-29T10:03:58.817Z,48.5
2022-07-29T10:08:58.794Z,47.8
2022-07-29T10:13:58.784Z,47.5
2022-07-29T10:18:58.810Z,46.9
2022-07-29T10:23:59.521Z,47
2022-07-29T10:28:58.760Z,46.1
2022-07-29T10:33:58.765Z,46.2
2022-07-29T10:38:58.736Z,45.7
2022-07-29T10:43:58.738Z,45.7
2022-07-29T10:48:58.788Z,44.9
2022-07-29T10:53:58.729Z,45
2022-07-29T10:58:58.730Z,45.8
2022-07-29T11:03:58.725Z,44.6
2022-07-29T11:08:58.713Z,44.7
2022-07-29T11:13:58.694Z,42.8
2022-07-29T11:18:58.703Z,43.1
2022-07-29T11:23:58.701Z,43.4
2022-07-29T11:28:58.694Z,43.6
2022-07-29T11:34:02.465Z,43.1
2022-07-29T11:38:58.681Z,44
2022-07-29T11:43:58.660Z,43.8
2022-07-29T11:48:58.697Z,43.1
2022-07-29T11:54:02.545Z,43.1
2022-07-29T11:58:58.661Z,43.4
2022-07-29T12:03:58.702Z,44.4
2022-07-29T12:08:58.641Z,46.4
2022-07-29T12:13:58.625Z,46.6
2022-07-29T12:18:58.661Z,46
2022-07-29T12:24:04.984Z,43.2
2022-07-29T12:28:58.636Z,44.2
2022-07-29T12:33:58.642Z,41.3
2022-07-29T12:38:58.613Z,42.6
2022-07-29T12:43:58.600Z,43.3
2022-07-29T12:48:58.683Z,43.6
2022-07-29T12:53:58.573Z,43.5
2022-07-29T12:58:58.575Z,43
2022-07-29T13:03:59.625Z,44.5
2022-07-29T13:08:58.561Z,43.4
2022-07-29T13:14:06.028Z,43.3
2022-07-29T13:18:58.549Z,44.4
2022-07-29T13:23:58.544Z,44.6
2022-07-29T13:28:58.549Z,43.3
2022-07-29T13:33:58.518Z,44.4
2022-07-29T13:38:58.532Z,43.3
2022-07-29T13:43:58.539Z,41.6
2022-07-29T13:48:58.574Z,41.8
2022-07-29T13:53:58.516Z,42
2022-07-29T13:58:58.507Z,41.6
2022-07-29T14:03:58.497Z,41.6
2022-07-29T14:08:58.480Z,42.1
2022-07-29T14:13:58.493Z,43.4
2022-07-29T14:18:58.478Z,43.1
2022-07-29T14:23:58.467Z,43.2
2022-07-29T14:28:58.467Z,42.4
2022-07-29T14:34:02.476Z,43.4
2022-07-29T14:48:58.482Z,44.4
2022-07-29T14:53:58.441Z,46.3
2022-07-29T14:58:58.426Z,46.7
2022-07-29T15:03:59.873Z,47.4
2022-07-29T15:18:58.411Z,46.6
2022-07-29T15:23:58.383Z,47.9
2022-07-29T15:34:01.257Z,47.1
2022-07-29T15:38:58.370Z,47.4
2022-07-29T15:43:58.371Z,47.5
2022-07-29T15:48:58.451Z,47.9
2022-07-29T15:53:58.353Z,48.1
2022-07-29T15:58:58.367Z,48.4
2022-07-29T16:03:58.372Z,49
2022-07-29T16:08:58.317Z,47.9
2022-07-29T16:13:58.334Z,48.8
2022-07-29T16:18:58.317Z,49.9
2022-07-29T16:23:58.318Z,51.1
2022-07-29T16:28:58.302Z,51.4
2022-07-29T16:33:58.313Z,51.5
2022-07-29T16:38:58.303Z,51.8
2022-07-29T16:43:58.280Z,52.5
2022-07-29T16:48:58.341Z,53.1
2022-07-29T16:53:58.258Z,53.8
2022-07-29T16:58:58.286Z,54.9
2022-07-29T17:04:00.060Z,55.9
2022-07-29T17:08:58.242Z,56.5
2022-07-29T17:13:58.248Z,56.8
2022-07-29T17:18:58.247Z,56.9
2022-07-29T17:23:58.237Z,57.5
2022-07-29T17:28:58.218Z,58.8
2022-07-29T17:33:59.959Z,59.5
2022-07-29T17:38:58.230Z,61.3
2022-07-29T17:43:58.208Z,63.2
2022-07-29T17:48:58.247Z,63.7
2022-07-29T17:53:58.196Z,63.6
2022-07-29T17:58:58.192Z,63.5
2022-07-29T18:04:00.127Z,63.9
2022-07-29T18:08:58.178Z,63.9
2022-07-29T18:13:58.152Z,63.8
2022-07-29T18:18:58.155Z,63
2022-07-29T18:23:58.147Z,59.6
2022-07-29T18:28:58.158Z,58.5
2022-07-29T18:34:00.020Z,59
2022-07-29T18:38:58.128Z,61.8
2022-07-29T18:43:58.130Z,63.3
2022-07-29T18:48:58.165Z,64.5
2022-07-29T18:53:58.116Z,64.8
2022-07-29T18:58:58.111Z,65.5
2022-07-29T19:03:58.107Z,66.4
2022-07-29T19:08:58.107Z,64.7
2022-07-29T19:13:58.088Z,64.8
2022-07-29T19:18:58.086Z,64.4
2022-07-29T19:24:00.446Z,64.8
2022-07-29T19:28:58.060Z,65.1
2022-07-29T19:33:58.055Z,65.7
2022-07-29T19:38:58.054Z,66.4
2022-07-29T19:43:58.040Z,67.2
2022-07-29T19:48:58.052Z,68.2
2022-07-29T19:53:58.033Z,69.1
2022-07-29T19:58:58.037Z,72.8
2022-07-29T20:03:58.020Z,74.5
2022-07-29T20:08:58.806Z,76.2
2022-07-29T20:13:58.026Z,77.7
2022-07-29T20:18:58.000Z,79.4
2022-07-29T20:38:57.970Z,83.9
2022-07-29T20:43:57.961Z,84.8
2022-07-29T20:53:57.946Z,86.4
2022-07-29T20:58:57.928Z,88.6
2022-07-29T21:03:57.923Z,88.8
2022-07-29T21:08:57.964Z,89.3
2022-07-29T21:13:57.922Z,90.1
2022-07-29T21:18:57.917Z,90.1
2022-07-29T21:23:57.916Z,90.9
2022-07-29T21:28:57.912Z,91.5
2022-07-29T21:33:57.885Z,91.4
2022-07-29T21:38:57.889Z,92.2
2022-07-29T21:43:58.260Z,92.6
2022-07-29T21:48:57.962Z,93.1
2022-07-29T21:53:57.899Z,92.8
2022-07-29T21:58:57.902Z,93.1
2022-07-29T22:13:57.882Z,93.4
2022-07-29T22:18:57.823Z,93.6
2022-07-29T22:23:57.822Z,94
2022-07-29T22:28:57.821Z,94.2
2022-07-29T22:33:57.814Z,94.2
2022-07-29T22:38:57.832Z,94.6
2022-07-29T22:43:57.812Z,94.4
2022-07-29T22:48:57.849Z,94.4
2022-07-29T22:53:57.789Z,94.2
2022-07-29T22:58:57.783Z,94.7
2022-07-29T23:03:57.814Z,94.8
2022-07-29T23:08:57.776Z,94.7
2022-07-29T23:13:57.764Z,94.5
2022-07-29T23:18:57.754Z,94
2022-07-29T23:23:57.739Z,94.2
2022-07-29T23:28:57.753Z,94.3
2022-07-29T23:33:57.725Z,93.9
2022-07-29T23:38:57.725Z,94.1
2022-07-29T23:43:57.740Z,94
2022-07-29T23:48:57.817Z,93.8
2022-07-29T23:53:57.716Z,94.6
2022-07-29T23:58:57.717Z,94
